Time;durP1;ratioP1;P1;durP2;ratioP2;P2;SDS_P1;SDS_P2;PMS_P1;PMS_P2;Temp;Humidity;BMP_temperature;BMP_pressure;BME280_temperature;BME280_humidity;BME280_pressure;Samples;Min_cycle;Max_cycle;Signal;HPM_P1;HPM_P2
2024/01/31 00:00:09;;;;;;;15.95;8.75;;;;;;;10.91;67.56;101993.22;10311628;28;20046;-88
2024/01/31 00:05:14;;;;;;;16.85;8.75;;;;;;;10.91;67.42;101987.84;10314390;28;20469;-87
2024/01/31 00:10:16;;;;;;;17.75;9.25;;;;;;;10.89;67.13;101989.00;10310681;28;20104;-87
2024/01/31 00:15:18;;;;;;;16.73;10.02;;;;;;;10.83;67.57;101995.75;10304965;28;20351;-87
2024/01/31 00:20:19;;;;;;;17.17;9.27;;;;;;;10.84;67.40;101992.09;10315458;28;20046;-88
2024/01/31 00:25:21;;;;;;;19.08;9.07;;;;;;;10.82;67.31;101987.81;10316209;28;20078;-87
2024/01/31 00:30:23;;;;;;;18.60;9.52;;;;;;;10.70;67.78;102000.53;10316138;28;20046;-87
2024/01/31 00:35:25;;;;;;;15.07;7.85;;;;;;;10.76;67.78;101973.06;10317266;28;20046;-87
2024/01/31 00:40:26;;;;;;;11.75;5.97;;;;;;;10.76;67.60;101988.38;10307606;28;20520;-87
2024/01/31 00:45:28;;;;;;;13.60;8.50;;;;;;;10.79;67.55;101986.25;10312616;28;20043;-87
2024/01/31 00:50:29;;;;;;;13.60;8.32;;;;;;;10.68;67.65;101995.31;10305249;28;20042;-87
2024/01/31 00:55:31;;;;;;;4.55;2.58;;;;;;;10.69;67.80;101990.78;10315767;28;20640;-87
2024/01/31 01:00:33;;;;;;;3.13;2.17;;;;;;;10.74;67.49;101983.13;10314403;28;20053;-87
2024/01/31 01:05:34;;;;;;;3.47;0.70;;;;;;;10.75;66.64;101998.28;10306806;28;20050;-87
2024/01/31 01:10:36;;;;;;;4.57;1.17;;;;;;;10.84;65.99;101984.03;10305605;28;20046;-87
2024/01/31 01:15:38;;;;;;;5.55;0.80;;;;;;;10.87;65.00;101986.44;10309360;28;20193;-87
2024/01/31 01:20:39;;;;;;;3.05;0.80;;;;;;;10.95;64.63;101985.75;10306705;28;20047;-87
2024/01/31 01:25:41;;;;;;;2.78;0.68;;;;;;;11.07;63.68;101981.09;10303137;28;20436;-87
2024/01/31 01:30:43;;;;;;;4.38;0.60;;;;;;;11.06;63.22;101988.31;10305861;28;20038;-87
2024/01/31 01:35:45;;;;;;;2.65;0.50;;;;;;;11.02;62.87;101988.72;10308331;28;20061;-86
2024/01/31 01:40:46;;;;;;;3.47;0.70;;;;;;;11.10;62.47;101991.59;10306036;28;20137;-86
2024/01/31 01:45:48;;;;;;;4.53;0.50;;;;;;;11.00;61.87;101999.66;10304517;28;20046;-86
2024/01/31 01:50:50;;;;;;;3.88;0.60;;;;;;;11.00;61.84;102001.47;10306382;28;20046;-86
2024/01/31 01:55:51;;;;;;;1.05;0.60;;;;;;;11.04;61.07;102003.75;10303606;28;20038;-86
2024/01/31 02:00:54;;;;;;;6.45;0.80;;;;;;;11.00;60.82;101999.66;10305436;28;20070;-86
2024/01/31 02:06:00;;;;;;;1.58;0.50;;;;;;;10.97;60.76;101991.00;10303521;28;20046;-86
2024/01/31 02:11:02;;;;;;;3.42;0.70;;;;;;;10.90;60.71;101996.09;10300380;28;20520;-86
2024/01/31 02:16:04;;;;;;;3.10;0.50;;;;;;;10.78;60.90;102005.22;10299410;28;20089;-86
2024/01/31 02:21:05;;;;;;;2.45;0.70;;;;;;;10.89;60.53;102005.97;10308805;28;20042;-86
2024/01/31 02:26:07;;;;;;;2.30;0.45;;;;;;;10.65;60.72;102000.09;10305604;28;20497;-86
2024/01/31 02:31:08;;;;;;;1.10;0.28;;;;;;;10.51;60.55;102002.16;10304479;28;20047;-86
2024/01/31 02:36:10;;;;;;;2.85;0.40;;;;;;;10.40;60.09;101999.56;10305855;28;21240;-86
2024/01/31 02:41:12;;;;;;;6.57;0.55;;;;;;;10.33;59.69;102001.09;10305496;28;20058;-86
2024/01/31 02:46:13;;;;;;;1.00;0.30;;;;;;;10.34;59.33;102004.63;10307367;28;20050;-86
2024/01/31 02:51:15;;;;;;;2.92;0.40;;;;;;;10.34;58.83;102008.16;10309976;28;20042;-86
2024/01/31 02:56:17;;;;;;;0.90;0.35;;;;;;;10.34;59.14;102000.09;10316058;28;20046;-86
2024/01/31 03:01:19;;;;;;;1.45;0.40;;;;;;;10.35;58.84;102001.81;10312355;28;20043;-87
2024/01/31 03:06:21;;;;;;;3.05;0.38;;;;;;;10.31;58.63;102003.06;10316673;28;20058;-86
2024/01/31 03:11:22;;;;;;;2.78;0.38;;;;;;;10.24;58.50;102012.59;10313764;28;20065;-86
2024/01/31 03:16:24;;;;;;;2.50;0.30;;;;;;;10.19;58.82;102021.06;10309087;28;20050;-86
2024/01/31 03:21:26;;;;;;;4.07;1.15;;;;;;;10.30;58.07;102018.31;10313527;28;20034;-86
2024/01/31 03:26:27;;;;;;;1.55;0.40;;;;;;;10.27;58.37;102028.47;10311209;28;20046;-86
2024/01/31 03:31:29;;;;;;;1.17;0.35;;;;;;;10.31;57.86;102028.09;10313890;28;20112;-86
2024/01/31 03:36:31;;;;;;;1.08;0.50;;;;;;;10.30;57.83;102029.06;10314943;28;20039;-86
2024/01/31 03:41:33;;;;;;;1.05;0.77;;;;;;;10.34;58.12;102035.03;10313832;28;20043;-86
2024/01/31 03:46:35;;;;;;;2.20;0.57;;;;;;;10.41;57.99;102028.16;10312009;28;20043;-86
2024/01/31 03:51:37;;;;;;;1.73;0.35;;;;;;;10.28;57.76;102048.97;10307012;28;20045;-86
2024/01/31 03:56:39;;;;;;;1.92;0.40;;;;;;;10.11;58.02;102047.72;10310889;28;20051;-86
2024/01/31 04:01:40;;;;;;;0.60;0.30;;;;;;;9.96;58.38;102049.91;10304520;28;20588;-86
2024/01/31 04:06:42;;;;;;;0.75;0.38;;;;;;;9.87;58.60;102056.03;10311238;28;20047;-86
2024/01/31 04:11:44;;;;;;;1.38;0.40;;;;;;;9.79;58.27;102063.88;10309334;28;20153;-86
2024/01/31 04:16:47;;;;;;;1.63;0.30;;;;;;;9.76;58.47;102056.09;10310827;28;20035;-87
2024/01/31 04:21:48;;;;;;;2.60;0.50;;;;;;;9.58;58.53;102047.72;10307875;28;20109;-87
2024/01/31 04:26:51;;;;;;;1.35;0.60;;;;;;;9.32;59.06;102056.09;10304988;28;20043;-87
2024/01/31 04:31:53;;;;;;;2.97;0.88;;;;;;;9.19;58.62;102067.00;10309132;28;20129;-86
2024/01/31 04:36:54;;;;;;;2.20;0.95;;;;;;;8.96;59.25;102070.66;10309566;28;20113;-87
2024/01/31 04:41:56;;;;;;;5.13;1.17;;;;;;;8.76;59.32;102070.44;10316136;28;20051;-86
2024/01/31 04:46:57;;;;;;;1.77;0.40;;;;;;;8.54;59.84;102077.47;10303379;28;20839;-88
2024/01/31 04:51:59;;;;;;;6.72;0.80;;;;;;;8.33;60.06;102079.97;10306617;28;20460;-86
2024/01/31 04:57:01;;;;;;;1.98;0.93;;;;;;;8.11;60.07;102079.91;10307545;28;20516;-86
2024/01/31 05:02:02;;;;;;;4.28;1.00;;;;;;;7.78;60.93;102086.88;10309223;28;20074;-87
2024/01/31 05:07:04;;;;;;;1.38;0.88;;;;;;;7.62;61.45;102078.25;10306604;28;20050;-86
2024/01/31 05:12:06;;;;;;;4.60;0.90;;;;;;;7.57;61.46;102081.28;10308687;28;20051;-87
2024/01/31 05:17:09;;;;;;;1.10;0.50;;;;;;;7.34;62.10;102096.34;10305967;28;20116;-87
2024/01/31 05:22:12;;;;;;;3.30;1.40;;;;;;;7.23;62.06;102104.31;10313827;28;20058;-87
2024/01/31 05:27:14;;;;;;;3.55;0.80;;;;;;;7.13;62.40;102098.75;10314840;28;20579;-87
2024/01/31 05:32:16;;;;;;;2.45;1.00;;;;;;;7.02;62.28;102082.63;10308973;28;20038;-86
2024/01/31 05:37:18;;;;;;;1.38;0.68;;;;;;;6.86;62.76;102085.53;10313743;28;20054;-88
2024/01/31 05:42:20;;;;;;;5.50;1.48;;;;;;;6.75;62.71;102081.81;10310252;28;20055;-88
2024/01/31 05:47:22;;;;;;;5.07;1.50;;;;;;;6.67;62.98;102080.63;10317528;28;20043;-87
2024/01/31 05:52:24;;;;;;;2.80;0.88;;;;;;;6.58;62.75;102068.78;10309210;28;20046;-87
2024/01/31 05:57:26;;;;;;;2.00;0.60;;;;;;;6.53;62.93;102061.06;10295080;28;20043;-87
2024/01/31 06:02:28;;;;;;;1.98;0.70;;;;;;;6.49;63.52;102056.91;10310403;28;20145;-84
2024/01/31 06:07:29;;;;;;;3.10;1.10;;;;;;;6.44;63.08;102058.22;10308959;28;20047;-83
2024/01/31 06:12:31;;;;;;;3.08;1.35;;;;;;;6.30;63.57;102064.47;10302285;28;20039;-84
2024/01/31 06:17:32;;;;;;;3.97;1.77;;;;;;;6.17;64.43;102066.28;10300072;28;20042;-81
2024/01/31 06:22:34;;;;;;;5.90;1.88;;;;;;;6.04;64.26;102087.63;10308751;28;20506;-82
2024/01/31 06:27:36;;;;;;;5.03;1.73;;;;;;;5.92;64.68;102089.25;10314420;28;20090;-82
2024/01/31 06:32:47;;;;;;;9.65;3.88;;;;;;;5.87;64.46;102097.59;10320370;28;20069;-82
2024/01/31 06:37:49;;;;;;;4.72;2.08;;;;;;;5.89;64.69;102103.69;10316699;28;20879;-82
2024/01/31 06:42:51;;;;;;;4.32;1.73;;;;;;;5.85;64.89;102109.34;10313656;28;20057;-81
2024/01/31 06:47:54;;;;;;;8.98;2.40;;;;;;;5.80;64.73;102106.94;10319460;28;20049;-84
2024/01/31 06:52:56;;;;;;;6.85;2.70;;;;;;;5.92;64.75;102116.84;10321960;28;20085;-90
2024/01/31 06:57:57;;;;;;;8.95;3.17;;;;;;;6.07;64.79;102125.66;10338329;28;20041;-87
2024/01/31 07:02:59;;;;;;;10.60;4.07;;;;;;;6.24;64.37;102126.31;10351835;28;20077;-85
2024/01/31 07:08:01;;;;;;;7.68;3.45;;;;;;;6.43;64.36;102123.25;10340276;28;20050;-84
2024/01/31 07:13:03;;;;;;;7.65;2.97;;;;;;;6.60;64.10;102119.44;10315538;28;20083;-83
2024/01/31 07:18:05;;;;;;;18.48;6.80;;;;;;;6.79;64.45;102121.66;10314632;28;20051;-83
2024/01/31 07:23:06;;;;;;;11.43;3.70;;;;;;;6.77;65.07;102129.78;10309638;28;20053;-82
2024/01/31 07:28:08;;;;;;;11.45;3.70;;;;;;;6.99;64.75;102133.63;10310137;28;20054;-90
2024/01/31 07:33:10;;;;;;;12.20;6.05;;;;;;;7.17;64.41;102135.00;10336106;28;20046;-93
2024/01/31 07:38:11;;;;;;;9.95;4.25;;;;;;;7.31;64.40;102123.31;10358452;28;20109;-93
2024/01/31 07:43:16;;;;;;;7.75;3.45;;;;;;;7.47;64.66;102133.75;10361605;28;20050;-93
2024/01/31 07:48:18;;;;;;;7.03;3.40;;;;;;;7.51;64.65;102130.75;10359350;28;20704;-93
2024/01/31 07:53:22;;;;;;;5.75;3.70;;;;;;;7.62;64.56;102127.31;10354410;28;20096;-89
2024/01/31 07:58:23;;;;;;;7.70;3.00;;;;;;;7.82;64.35;102123.16;10316638;28;20051;-89
2024/01/31 08:03:25;;;;;;;6.68;3.15;;;;;;;7.95;64.28;102117.72;10332441;28;20047;-91
2024/01/31 08:08:27;;;;;;;10.38;3.85;;;;;;;8.07;64.60;102121.28;10346474;23;20054;-65
2024/01/31 08:13:28;;;;;;;8.35;2.95;;;;;;;8.19;64.23;102106.97;10318890;28;20058;-63
2024/01/31 08:18:30;;;;;;;7.13;3.53;;;;;;;8.26;64.43;102107.38;10332539;28;20049;-65
2024/01/31 08:23:32;;;;;;;7.25;2.85;;;;;;;8.46;64.08;102109.38;10326812;28;20058;-64
2024/01/31 08:28:33;;;;;;;9.48;2.90;;;;;;;8.61;64.16;102110.03;10333321;28;20069;-62
2024/01/31 08:33:35;;;;;;;7.57;4.22;;;;;;;8.78;64.00;102110.53;10317348;28;20034;-64
2024/01/31 08:38:39;;;;;;;6.15;3.45;;;;;;;8.89;64.18;102105.19;10326412;28;20132;-64
2024/01/31 08:43:40;;;;;;;8.15;3.15;;;;;;;9.00;64.13;102115.88;10316610;28;20083;-63
2024/01/31 08:48:42;;;;;;;10.52;4.50;;;;;;;9.16;63.99;102120.03;10324313;28;20100;-66
2024/01/31 08:53:44;;;;;;;6.25;3.75;;;;;;;9.34;63.94;102110.53;10313885;28;20134;-67
2024/01/31 08:58:46;;;;;;;7.30;3.88;;;;;;;9.56;63.57;102104.25;10308932;28;20144;-67
2024/01/31 09:03:49;;;;;;;6.68;3.40;;;;;;;9.76;63.19;102097.22;10309580;28;20054;-66
2024/01/31 09:08:50;;;;;;;6.85;3.30;;;;;;;9.93;63.30;102104.75;10305404;28;20045;-67
2024/01/31 09:13:52;;;;;;;8.32;4.03;;;;;;;10.07;62.91;102105.38;10309475;28;20058;-66
2024/01/31 09:18:53;;;;;;;5.95;3.67;;;;;;;10.21;62.95;102107.78;10311659;28;20065;-66
2024/01/31 09:23:55;;;;;;;7.60;4.28;;;;;;;10.40;62.41;102115.16;10310226;28;20501;-66
2024/01/31 09:28:57;;;;;;;9.00;4.65;;;;;;;10.61;62.47;102108.94;10310084;28;20132;-66
2024/01/31 09:33:58;;;;;;;12.95;4.68;;;;;;;10.71;62.52;102105.28;10304994;28;20078;-67
2024/01/31 09:39:00;;;;;;;10.25;4.40;;;;;;;10.89;62.64;102105.50;10311918;28;20039;-66
2024/01/31 09:44:02;;;;;;;13.80;5.00;;;;;;;11.02;61.95;102097.22;10309979;28;20381;-66
2024/01/31 09:49:04;;;;;;;10.52;5.47;;;;;;;11.22;61.67;102092.75;10307843;28;20057;-67
2024/01/31 09:54:07;;;;;;;12.57;6.53;;;;;;;11.35;61.70;102097.03;10304775;28;20077;-67
2024/01/31 09:59:09;;;;;;;10.90;5.32;;;;;;;11.36;61.83;102091.53;10303975;28;20047;-67
2024/01/31 10:04:11;;;;;;;10.05;5.32;;;;;;;11.49;61.37;102092.13;10359166;23;20080;-87
2024/01/31 10:09:13;;;;;;;12.45;5.32;;;;;;;11.61;60.92;102094.66;10371848;28;20050;-87
2024/01/31 10:14:15;;;;;;;7.47;4.50;;;;;;;11.62;61.23;102099.94;10373408;28;20042;-87
2024/01/31 10:19:17;;;;;;;8.80;4.72;;;;;;;11.71;60.36;102090.16;10370981;28;20077;-86
2024/01/31 10:24:18;;;;;;;10.50;4.47;;;;;;;11.95;60.08;102088.91;10374766;28;20094;-87
2024/01/31 10:29:20;;;;;;;8.15;4.47;;;;;;;12.21;59.42;102084.66;10346881;28;20086;-83
2024/01/31 10:34:25;;;;;;;11.00;4.13;;;;;;;12.41;59.24;102080.06;10325449;28;20054;-83
2024/01/31 10:39:40;;;;;;;6.97;4.45;;;;;;;12.44;59.11;102074.41;10346726;28;20054;-89
2024/01/31 10:44:43;;;;;;;10.80;4.00;;;;;;;12.57;58.44;102073.22;10350040;28;20468;-83
2024/01/31 10:49:45;;;;;;;6.97;4.10;;;;;;;12.36;58.93;102082.38;10355942;28;20054;-87
2024/01/31 10:54:55;;;;;;;7.22;3.72;;;;;;;12.49;58.09;102082.88;10342795;28;20464;-87
2024/01/31 10:59:57;;;;;;;10.07;3.42;;;;;;;12.54;58.08;102090.56;10340327;28;20467;-83
2024/01/31 11:05:06;;;;;;;7.80;3.42;;;;;;;12.63;57.62;102089.66;10344368;28;20404;-82
2024/01/31 11:10:22;;;;;;;8.75;3.15;;;;;;;12.43;57.65;102099.66;10345625;28;20541;-82
2024/01/31 11:15:39;;;;;;;4.40;2.25;;;;;;;11.99;58.09;102095.75;10353531;28;20497;-82
2024/01/31 11:20:50;;;;;;;3.45;1.63;;;;;;;11.89;57.26;102091.19;10348149;28;20104;-82
2024/01/31 11:25:52;;;;;;;3.75;1.60;;;;;;;12.08;56.77;102090.34;10353580;28;20045;-82
2024/01/31 11:30:54;;;;;;;5.22;1.20;;;;;;;12.10;56.24;102071.31;10345510;28;20551;-82
2024/01/31 11:35:56;;;;;;;5.30;1.75;;;;;;;12.20;55.89;102076.69;10346546;28;20089;-83
2024/01/31 11:40:57;;;;;;;1.40;0.93;;;;;;;12.12;55.54;102074.72;10357193;28;20531;-85
2024/01/31 11:45:59;;;;;;;1.92;0.82;;;;;;;12.28;54.68;102069.59;10349643;28;20532;-84
2024/01/31 11:51:03;;;;;;;1.95;0.98;;;;;;;12.34;54.33;102051.97;10347979;28;20399;-84
2024/01/31 11:56:06;;;;;;;4.15;0.50;;;;;;;12.38;53.62;102039.94;10347123;28;20050;-84
2024/01/31 12:01:07;;;;;;;2.50;0.40;;;;;;;12.41;53.21;102023.44;10348808;28;20045;-85
2024/01/31 12:06:09;;;;;;;2.53;0.60;;;;;;;12.49;53.05;102004.66;10330613;28;20133;-84
2024/01/31 12:11:11;;;;;;;2.72;0.60;;;;;;;12.68;52.94;101989.41;10376975;28;20054;-91
2024/01/31 12:16:13;;;;;;;1.15;0.60;;;;;;;13.06;52.20;101976.69;10385822;28;20042;-91
2024/01/31 12:21:15;;;;;;;2.25;0.70;;;;;;;12.88;51.94;101977.50;10380140;28;20057;-90
2024/01/31 12:26:16;;;;;;;4.45;0.60;;;;;;;12.81;51.48;101968.31;10385714;23;20038;-68
2024/01/31 12:31:18;;;;;;;1.95;0.73;;;;;;;12.71;50.89;101959.41;10338952;28;20590;-69
2024/01/31 12:36:20;;;;;;;3.22;0.85;;;;;;;12.66;50.41;101949.09;10340054;28;20049;-73
2024/01/31 12:41:22;;;;;;;0.90;0.50;;;;;;;12.48;50.42;101951.72;10343978;28;20615;-73
2024/01/31 12:46:24;;;;;;;1.95;0.82;;;;;;;12.61;50.02;101934.34;10341732;28;20050;-71
2024/01/31 12:51:26;;;;;;;1.20;0.65;;;;;;;12.80;49.30;101912.66;10347720;28;20119;-71
2024/01/31 12:56:28;;;;;;;4.25;0.50;;;;;;;12.74;49.60;101899.75;10340956;28;20034;-73
2024/01/31 13:01:29;;;;;;;1.52;0.50;;;;;;;12.70;49.21;101901.06;10342502;28;20042;-74
2024/01/31 13:06:31;;;;;;;2.42;0.60;;;;;;;12.88;49.00;101893.84;10323463;28;20124;-69
2024/01/31 13:11:33;;;;;;;1.30;0.50;;;;;;;12.96;48.74;101879.56;10343281;28;20041;-73
2024/01/31 13:16:36;;;;;;;2.10;0.45;;;;;;;13.05;48.38;101875.97;10344558;28;20047;-75
2024/01/31 13:21:54;;;;;;;1.00;0.50;;;;;;;12.64;48.59;101877.41;10338873;28;20136;-69
2024/01/31 13:26:56;;;;;;;1.10;0.50;;;;;;;12.48;49.24;101878.91;10339389;28;20880;-67
2024/01/31 13:31:58;;;;;;;6.00;0.68;;;;;;;12.18;49.54;101887.28;10361584;28;20069;-68
2024/01/31 13:37:00;;;;;;;2.33;0.52;;;;;;;11.98;49.83;101884.66;10343124;28;20042;-68
2024/01/31 13:42:03;;;;;;;2.50;0.40;;;;;;;11.91;49.03;101880.88;10343267;28;20042;-67
2024/01/31 13:47:05;;;;;;;1.85;0.47;;;;;;;12.10;48.93;101890.72;10348786;28;20057;-68
2024/01/31 13:52:06;;;;;;;2.97;0.63;;;;;;;11.92;48.95;101890.63;10340242;28;20058;-69
2024/01/31 13:57:08;;;;;;;3.67;0.70;;;;;;;11.49;49.55;101909.00;10342157;28;20061;-69
2024/01/31 14:02:09;;;;;;;0.77;0.40;;;;;;;11.38;49.60;101902.91;10344918;28;20069;-69
2024/01/31 14:07:11;;;;;;;7.45;0.50;;;;;;;11.47;49.40;101885.88;10344163;28;20056;-67
2024/01/31 14:12:12;;;;;;;1.95;0.50;;;;;;;11.70;48.62;101876.47;10342545;28;20603;-68
2024/01/31 14:17:14;;;;;;;2.72;0.70;;;;;;;11.64;48.81;101866.28;10339088;28;20118;-68
2024/01/31 14:22:16;;;;;;;1.73;0.40;;;;;;;11.55;49.16;101882.47;10343889;28;20046;-68
2024/01/31 14:27:27;;;;;;;1.10;0.50;;;;;;;11.42;49.62;101875.56;10359973;28;20033;-66
2024/01/31 14:32:28;;;;;;;1.88;0.50;;;;;;;11.32;49.27;101866.66;10389161;28;20038;-66
2024/01/31 14:37:30;;;;;;;0.45;0.32;;;;;;;11.31;49.29;101854.16;10385664;28;20037;-65
2024/01/31 14:42:31;;;;;;;1.75;0.30;;;;;;;11.32;49.45;101859.41;10391050;28;20029;-65
2024/01/31 14:47:33;;;;;;;1.33;0.35;;;;;;;11.40;49.16;101863.25;10393182;28;20069;-65
2024/01/31 14:52:34;;;;;;;0.70;0.50;;;;;;;11.17;49.87;101876.13;10401082;28;20037;-65
2024/01/31 14:57:36;;;;;;;2.55;0.40;;;;;;;10.96;49.99;101881.66;10401623;28;20026;-65
2024/01/31 15:02:39;;;;;;;1.25;0.30;;;;;;;11.03;50.30;101880.09;10400442;28;20122;-66
2024/01/31 15:07:41;;;;;;;0.50;0.30;;;;;;;10.88;50.45;101869.78;10404839;28;20050;-66
2024/01/31 15:12:42;;;;;;;2.08;0.28;;;;;;;10.75;50.76;101857.59;10397294;28;20057;-66
2024/01/31 15:17:44;;;;;;;1.85;0.63;;;;;;;10.62;50.91;101864.06;10401524;28;20041;-66
2024/01/31 15:22:46;;;;;;;3.38;0.60;;;;;;;10.52;51.06;101865.88;10397322;28;20030;-67
2024/01/31 15:27:47;;;;;;;2.15;0.47;;;;;;;10.44;51.16;101858.50;10397969;28;20034;-66
2024/01/31 15:32:49;;;;;;;1.25;0.32;;;;;;;10.31;51.08;101845.31;10397153;28;20042;-66
2024/01/31 15:37:51;;;;;;;0.90;0.20;;;;;;;10.28;51.46;101837.50;10391901;28;20054;-66
2024/01/31 15:42:52;;;;;;;2.70;0.20;;;;;;;10.16;51.79;101833.22;10401954;28;20048;-66
2024/01/31 15:47:54;;;;;;;1.52;0.20;;;;;;;10.08;51.97;101825.84;10397458;28;20037;-66
2024/01/31 15:52:55;;;;;;;1.17;0.47;;;;;;;10.05;51.80;101817.19;10393849;28;20049;-67
2024/01/31 15:57:57;;;;;;;2.20;1.23;;;;;;;9.98;52.24;101810.69;10349342;28;20564;-67
2024/01/31 16:02:58;;;;;;;3.00;0.50;;;;;;;10.05;52.21;101814.50;10345473;28;20133;-66
2024/01/31 16:08:00;;;;;;;2.35;1.23;;;;;;;10.12;52.13;101807.59;10345579;28;20134;-65
2024/01/31 16:13:02;;;;;;;1.40;0.30;;;;;;;9.96;52.60;101808.13;10342934;28;20050;-66
2024/01/31 16:18:08;;;;;;;3.17;0.40;;;;;;;9.83;52.81;101802.13;10344401;28;20437;-65
2024/01/31 16:23:12;;;;;;;1.58;0.30;;;;;;;9.71;53.21;101796.84;10343078;28;20840;-65
2024/01/31 16:28:13;;;;;;;1.95;0.47;;;;;;;9.62;53.13;101788.78;10344746;28;20054;-67
2024/01/31 16:33:15;;;;;;;3.38;0.50;;;;;;;9.61;53.45;101790.59;10338254;28;20480;-65
2024/01/31 16:38:17;;;;;;;2.45;0.40;;;;;;;9.54;53.03;101794.81;10342546;28;20050;-65
2024/01/31 16:43:19;;;;;;;3.15;0.65;;;;;;;9.46;53.57;101789.25;10340311;28;20056;-66
2024/01/31 16:48:20;;;;;;;3.35;1.13;;;;;;;9.39;53.79;101786.25;10345988;28;20057;-67
2024/01/31 16:53:22;;;;;;;0.80;0.50;;;;;;;9.31;53.74;101781.53;10343236;28;20739;-66
2024/01/31 16:58:23;;;;;;;4.45;1.70;;;;;;;9.21;54.10;101777.09;10349819;28;20056;-61
2024/01/31 17:03:25;;;;;;;2.60;0.70;;;;;;;9.09;54.34;101779.84;10344788;28;20440;-61
2024/01/31 17:08:26;;;;;;;4.28;0.73;;;;;;;8.96;54.77;101772.97;10348786;28;20320;-61
2024/01/31 17:13:28;;;;;;;1.80;0.75;;;;;;;8.81;54.96;101762.56;10347233;28;20042;-62
2024/01/31 17:18:30;;;;;;;4.70;1.77;;;;;;;8.66;55.08;101769.22;10347666;28;20121;-61
2024/01/31 17:23:34;;;;;;;4.70;0.77;;;;;;;8.48;55.01;101776.97;10348328;28;20604;-61
2024/01/31 17:28:36;;;;;;;8.32;1.35;;;;;;;8.33;55.38;101771.88;10357185;28;20512;-61
2024/01/31 17:33:37;;;;;;;5.05;1.13;;;;;;;8.23;56.20;101775.41;10344898;28;20081;-61
2024/01/31 17:38:39;;;;;;;3.85;1.02;;;;;;;8.12;56.06;101763.75;10338918;28;22906;-61
2024/01/31 17:43:41;;;;;;;5.70;1.58;;;;;;;8.05;56.73;101759.84;10342860;28;20460;-60
2024/01/31 17:48:42;;;;;;;7.18;1.80;;;;;;;7.94;56.91;101741.16;10341761;28;20378;-61
2024/01/31 17:53:44;;;;;;;12.85;4.40;;;;;;;7.81;56.96;101721.69;10338381;28;20129;-60
2024/01/31 17:58:46;;;;;;;14.75;6.50;;;;;;;7.69;57.31;101726.22;10339415;28;20050;-61
2024/01/31 18:03:47;;;;;;;22.52;9.75;;;;;;;7.54;57.20;101729.16;10334746;28;20822;-60
2024/01/31 18:08:49;;;;;;;6.03;2.40;;;;;;;7.41;57.77;101712.38;10340429;28;20066;-61
2024/01/31 18:13:51;;;;;;;7.03;2.60;;;;;;;7.35;58.30;101720.88;10341991;28;20132;-64
2024/01/31 18:18:59;;;;;;;7.72;2.28;;;;;;;7.26;58.45;101722.44;10347995;28;20042;-63
2024/01/31 18:24:02;;;;;;;5.10;2.35;;;;;;;7.24;58.31;101734.25;10359178;28;20116;-63
2024/01/31 18:29:05;;;;;;;5.40;1.63;;;;;;;7.28;58.67;101741.88;10353816;28;20390;-64
2024/01/31 18:34:07;;;;;;;6.15;1.92;;;;;;;7.24;58.86;101732.41;10355293;28;20133;-63
2024/01/31 18:39:10;;;;;;;9.30;3.88;;;;;;;7.19;58.64;101720.34;10354328;28;20050;-63
2024/01/31 18:44:12;;;;;;;7.82;3.05;;;;;;;7.03;59.42;101728.72;10351097;28;20070;-63
2024/01/31 18:49:17;;;;;;;9.32;4.10;;;;;;;6.82;59.38;101729.41;10358158;28;20050;-62
2024/01/31 18:54:19;;;;;;;11.05;5.75;;;;;;;6.74;59.77;101735.34;10351705;28;20092;-64
2024/01/31 18:59:21;;;;;;;16.98;6.13;;;;;;;6.61;59.99;101744.41;10352319;28;20038;-63
2024/01/31 19:04:22;;;;;;;22.38;8.00;;;;;;;6.49;59.93;101748.84;10346404;28;20119;-63
2024/01/31 19:09:24;;;;;;;18.50;8.48;;;;;;;6.48;59.95;101752.50;10347606;28;20054;-63
2024/01/31 19:14:27;;;;;;;12.60;5.97;;;;;;;6.44;60.18;101751.88;10350182;28;20057;-65
2024/01/31 19:19:28;;;;;;;5.43;3.53;;;;;;;6.37;60.54;101747.94;10353221;28;20053;-64
2024/01/31 19:24:32;;;;;;;8.90;4.28;;;;;;;6.35;60.13;101739.19;10345347;28;20065;-64
2024/01/31 19:29:34;;;;;;;10.80;4.35;;;;;;;6.35;60.74;101710.66;10346783;28;20776;-66
2024/01/31 19:34:35;;;;;;;11.25;3.47;;;;;;;6.29;60.98;101700.44;10343339;28;20141;-66
2024/01/31 19:39:36;;;;;;;8.50;3.78;;;;;;;6.20;60.76;101692.28;10343472;28;20046;-64
2024/01/31 19:44:38;;;;;;;13.38;6.03;;;;;;;6.09;61.91;101674.41;10341854;28;20053;-66
2024/01/31 19:49:41;;;;;;;9.65;3.80;;;;;;;5.98;61.86;101675.19;10351680;28;20096;-64
2024/01/31 19:54:42;;;;;;;8.82;4.03;;;;;;;5.95;61.34;101664.75;10346747;28;20050;-66
2024/01/31 19:59:44;;;;;;;8.07;4.10;;;;;;;5.90;62.40;101656.19;10348297;28;20054;-66
2024/01/31 20:04:46;;;;;;;8.57;4.10;;;;;;;5.92;62.41;101641.78;10347506;28;20049;-66
2024/01/31 20:09:48;;;;;;;9.25;3.17;;;;;;;5.89;62.37;101625.13;10350640;28;20501;-66
2024/01/31 20:14:49;;;;;;;7.55;3.05;;;;;;;5.85;62.97;101629.00;10349341;28;20073;-66
2024/01/31 20:19:50;;;;;;;11.25;3.03;;;;;;;5.89;62.80;101620.66;10344160;28;20042;-66
2024/01/31 20:24:52;;;;;;;6.75;2.75;;;;;;;5.88;62.54;101610.06;10346509;28;20801;-63
2024/01/31 20:29:53;;;;;;;8.70;3.22;;;;;;;5.89;63.39;101612.63;10344516;28;20042;-66
2024/01/31 20:34:56;;;;;;;11.20;3.00;;;;;;;5.89;63.25;101599.28;10348398;28;20054;-66
2024/01/31 20:39:58;;;;;;;13.57;4.13;;;;;;;5.83;62.96;101590.91;10339921;28;20045;-66
2024/01/31 20:45:00;;;;;;;6.53;3.85;;;;;;;5.71;63.17;101585.50;10342269;28;20562;-65
2024/01/31 20:50:02;;;;;;;8.88;4.13;;;;;;;5.59;63.84;101597.09;10344224;28;20157;-66
2024/01/31 20:55:05;;;;;;;9.23;4.53;;;;;;;5.50;63.34;101603.94;10349217;28;20049;-67
2024/01/31 21:00:07;;;;;;;11.13;3.92;;;;;;;5.38;63.38;101617.31;10346135;28;20041;-66
2024/01/31 21:05:10;;;;;;;9.30;4.20;;;;;;;5.31;63.69;101599.09;10340415;28;20616;-67
2024/01/31 21:10:16;;;;;;;7.85;3.88;;;;;;;5.26;64.04;101589.72;10345811;28;20054;-66
2024/01/31 21:15:17;;;;;;;8.88;4.85;;;;;;;5.15;63.83;101591.38;10343695;28;20057;-66
2024/01/31 21:20:19;;;;;;;8.77;4.70;;;;;;;5.07;64.20;101583.03;10345601;28;20070;-66
2024/01/31 21:25:20;;;;;;;14.25;4.75;;;;;;;5.01;63.82;101578.16;10339619;28;20483;-64
2024/01/31 21:30:22;;;;;;;7.68;4.93;;;;;;;4.93;64.32;101607.16;10338301;28;20041;-65
2024/01/31 21:35:24;;;;;;;9.95;4.35;;;;;;;4.99;64.19;101598.72;10344802;28;20065;-65
2024/01/31 21:40:25;;;;;;;8.93;4.20;;;;;;;5.22;64.19;101604.25;10339106;28;20136;-64
2024/01/31 21:45:27;;;;;;;9.80;5.07;;;;;;;5.34;63.57;101588.19;10338941;28;20038;-63
2024/01/31 21:50:28;;;;;;;7.18;4.32;;;;;;;5.38;64.17;101591.50;10337309;28;20049;-63
2024/01/31 21:55:30;;;;;;;7.03;4.10;;;;;;;5.67;64.23;101553.84;10340092;28;20053;-63
2024/01/31 22:00:31;;;;;;;3.45;1.48;;;;;;;6.00;64.88;101562.97;10342247;28;20050;-64
2024/01/31 22:05:33;;;;;;;2.60;1.02;;;;;;;6.43;63.76;101539.16;10340841;28;20680;-63
2024/01/31 22:10:34;;;;;;;4.85;1.33;;;;;;;6.74;63.92;101568.81;10339827;28;20053;-64
2024/01/31 22:15:36;;;;;;;3.90;1.73;;;;;;;6.92;64.15;101569.19;10344916;28;20046;-63
2024/01/31 22:20:37;;;;;;;3.58;1.25;;;;;;;7.13;63.94;101580.00;10338248;28;20038;-64
2024/01/31 22:25:39;;;;;;;6.45;1.55;;;;;;;7.31;64.06;101572.31;10339863;28;20580;-64
2024/01/31 22:30:40;;;;;;;8.50;1.73;;;;;;;7.50;63.81;101572.53;10339400;28;20069;-63
2024/01/31 22:35:41;;;;;;;4.28;1.85;;;;;;;7.61;64.09;101570.78;10346164;28;20045;-64
2024/01/31 22:40:43;;;;;;;4.97;1.65;;;;;;;7.69;63.88;101561.13;10340377;28;20061;-64
2024/01/31 22:45:44;;;;;;;3.53;1.00;;;;;;;7.68;63.97;101554.09;10339504;28;20129;-64
2024/01/31 22:50:46;;;;;;;2.17;1.20;;;;;;;7.67;63.25;101546.19;10337147;28;20574;-63
2024/01/31 22:55:47;;;;;;;2.08;1.10;;;;;;;7.59;63.19;101543.31;10336394;28;20038;-65
2024/01/31 23:00:49;;;;;;;4.60;1.10;;;;;;;7.55;63.05;101532.00;10339570;28;20396;-63
2024/01/31 23:05:52;;;;;;;2.28;0.98;;;;;;;7.48;63.68;101520.94;10341066;28;20053;-63
2024/01/31 23:10:54;;;;;;;3.90;1.10;;;;;;;7.41;63.70;101521.59;10343562;28;20055;-64